Time;durP1;ratioP1;P1;durP2;ratioP2;P2;SDS_P1;SDS_P2;PMS_P1;PMS_P2;Temp;Humidity;BMP_temperature;BMP_pressure;BME280_temperature;BME280_humidity;BME280_pressure;Samples;Min_cycle;Max_cycle;Signal;HPM_P1;HPM_P2
2022/03/12 00:00:09;;;;;;;5.43;0.98;;;19.90;99.90;;;;;;5094541;28;20028;-74
2022/03/12 00:02:37;;;;;;;3.50;0.93;;;19.90;99.90;;;;;;5094464;28;20484;-73
2022/03/12 00:05:09;;;;;;;3.55;0.60;;;20.00;99.90;;;;;;5094320;28;20103;-75
2022/03/12 00:07:41;;;;;;;4.35;0.88;;;19.90;99.90;;;;;;5094566;28;20016;-73
2022/03/12 00:10:16;;;;;;;4.35;1.20;;;19.90;99.90;;;;;;5091379;28;20050;-73
2022/03/12 00:12:43;;;;;;;3.63;0.73;;;19.90;99.90;;;;;;5091725;28;20062;-74
2022/03/12 00:15:12;;;;;;;5.07;1.02;;;20.00;99.90;;;;;;5094161;28;20039;-74
2022/03/12 00:17:43;;;;;;;7.45;0.73;;;20.20;99.90;;;;;;5105372;28;20055;-74
2022/03/12 00:20:12;;;;;;;2.95;0.70;;;20.30;99.90;;;;;;5107310;28;20396;-74
2022/03/12 00:22:46;;;;;;;3.00;0.98;;;20.40;99.90;;;;;;5109821;28;20016;-74
2022/03/12 00:25:16;;;;;;;2.53;0.80;;;20.50;99.90;;;;;;5107920;28;20038;-75
2022/03/12 00:27:44;;;;;;;4.85;0.80;;;20.60;99.90;;;;;;5102453;28;20013;-75
2022/03/12 00:30:16;;;;;;;3.50;0.73;;;20.70;99.90;;;;;;5094902;28;20484;-75
2022/03/12 00:32:44;;;;;;;4.13;0.80;;;20.90;99.90;;;;;;5095045;28;20035;-73
2022/03/12 00:35:14;;;;;;;12.35;0.60;;;21.00;99.90;;;;;;5094841;28;20024;-73
2022/03/12 00:37:41;;;;;;;2.58;0.38;;;21.10;99.90;;;;;;5094574;28;20103;-73
2022/03/12 00:40:10;;;;;;;2.60;0.60;;;21.10;99.90;;;;;;5094914;28;20016;-74
2022/03/12 00:42:37;;;;;;;2.53;0.35;;;21.10;99.90;;;;;;5094939;28;20069;-73
2022/03/12 00:45:05;;;;;;;4.28;0.50;;;21.00;99.90;;;;;;5093364;28;20439;-72
2022/03/12 00:47:33;;;;;;;3.30;0.60;;;21.00;99.90;;;;;;5094655;28;20028;-73
2022/03/12 00:50:00;;;;;;;4.10;0.98;;;21.00;99.90;;;;;;5094330;28;20065;-75
2022/03/12 00:52:27;;;;;;;3.45;0.43;;;21.00;99.90;;;;;;5094577;28;20030;-73
2022/03/12 00:54:55;;;;;;;6.32;2.28;;;21.00;99.90;;;;;;5093059;28;20384;-75
2022/03/12 00:57:22;;;;;;;4.35;1.13;;;20.90;99.90;;;;;;5091932;28;20444;-74
2022/03/12 00:59:49;;;;;;;1.48;0.50;;;20.90;99.90;;;;;;5094354;28;20020;-73
2022/03/12 01:02:18;;;;;;;1.58;0.60;;;20.90;99.90;;;;;;5094178;28;20107;-76
2022/03/12 01:04:45;;;;;;;3.90;0.45;;;20.80;99.90;;;;;;5090954;28;20012;-76
2022/03/12 01:07:13;;;;;;;5.80;0.57;;;20.80;99.90;;;;;;5093354;28;20016;-73
2022/03/12 01:09:41;;;;;;;5.43;0.90;;;20.80;99.90;;;;;;5093787;28;20023;-77
2022/03/12 01:12:09;;;;;;;7.63;0.85;;;20.70;99.90;;;;;;5093925;28;20020;-72
2022/03/12 01:14:41;;;;;;;5.53;0.65;;;20.70;99.90;;;;;;5093765;28;20590;-74
2022/03/12 01:17:11;;;;;;;4.88;0.80;;;20.60;99.90;;;;;;5094246;28;20020;-72
2022/03/12 01:19:38;;;;;;;2.80;0.80;;;20.60;99.90;;;;;;5093637;28;20481;-74
2022/03/12 01:22:06;;;;;;;4.90;0.68;;;20.50;99.90;;;;;;5093540;28;20043;-73
2022/03/12 01:24:35;;;;;;;1.20;0.60;;;20.50;99.90;;;;;;5093583;28;20068;-72
2022/03/12 01:27:02;;;;;;;3.63;0.60;;;20.40;99.90;;;;;;5093812;28;20031;-75
2022/03/12 01:29:29;;;;;;;3.30;0.85;;;20.30;99.90;;;;;;5093761;28;20098;-74
2022/03/12 01:31:57;;;;;;;3.35;0.73;;;20.20;99.90;;;;;;5093453;28;20494;-73
2022/03/12 01:34:24;;;;;;;4.47;0.95;;;20.20;99.90;;;;;;5093356;28;20067;-73
2022/03/12 01:36:51;;;;;;;1.75;0.70;;;20.20;99.90;;;;;;5093517;28;20353;-73
2022/03/12 01:39:19;;;;;;;4.43;0.98;;;20.20;99.90;;;;;;5093613;28;20023;-73
2022/03/12 01:41:46;;;;;;;2.17;0.77;;;20.10;99.90;;;;;;5093398;28;20024;-73
2022/03/12 01:44:15;;;;;;;3.70;0.70;;;20.00;99.90;;;;;;5093310;28;20107;-73
2022/03/12 01:46:44;;;;;;;4.82;1.23;;;19.90;99.90;;;;;;5093327;28;20070;-72
2022/03/12 01:49:18;;;;;;;3.47;0.82;;;19.90;99.90;;;;;;5092969;28;20044;-72
2022/03/12 01:51:48;;;;;;;1.75;0.47;;;19.90;99.90;;;;;;5093415;28;20531;-72
2022/03/12 01:54:30;;;;;;;3.53;1.05;;;19.80;99.90;;;;;;5093305;28;20055;-73
2022/03/12 01:56:58;;;;;;;2.10;0.60;;;19.80;99.90;;;;;;5093333;28;20024;-72
2022/03/12 01:59:26;;;;;;;2.83;0.75;;;19.80;99.90;;;;;;5092858;28;20028;-72
2022/03/12 02:01:54;;;;;;;5.28;0.90;;;19.80;99.90;;;;;;5092703;28;20059;-72
2022/03/12 02:04:23;;;;;;;4.32;1.25;;;19.90;99.90;;;;;;5092083;28;20052;-73
2022/03/12 02:06:52;;;;;;;2.35;0.80;;;19.90;99.90;;;;;;5092231;28;20044;-72
2022/03/12 02:09:21;;;;;;;3.53;0.60;;;20.00;99.90;;;;;;5090111;28;20062;-73
2022/03/12 02:11:50;;;;;;;8.30;1.38;;;20.00;99.90;;;;;;5092629;28;20099;-72
2022/03/12 02:14:21;;;;;;;2.22;0.55;;;20.10;99.90;;;;;;5089604;28;20378;-74
2022/03/12 02:16:53;;;;;;;0.95;0.40;;;20.10;99.90;;;;;;5092689;28;20016;-75
2022/03/12 02:19:23;;;;;;;2.28;0.82;;;20.20;99.90;;;;;;5090133;28;20032;-76
2022/03/12 02:22:05;;;;;;;1.73;0.45;;;20.20;99.90;;;;;;5092570;28;20035;-74
2022/03/12 02:24:35;;;;;;;7.10;0.98;;;20.30;99.90;;;;;;5091810;28;20024;-72
2022/03/12 02:27:05;;;;;;;2.65;0.95;;;20.30;99.90;;;;;;5093063;28;20103;-75
2022/03/12 02:29:33;;;;;;;9.32;0.77;;;20.40;99.90;;;;;;5092984;28;20186;-73
2022/03/12 02:32:03;;;;;;;5.22;0.98;;;20.40;99.90;;;;;;5091778;28;20059;-72
2022/03/12 02:34:42;;;;;;;16.00;2.75;;;20.40;99.90;;;;;;5096583;28;20032;-73
2022/03/12 02:37:11;;;;;;;5.68;1.40;;;20.50;99.90;;;;;;5096761;28;20016;-72
2022/03/12 02:39:39;;;;;;;2.78;0.40;;;20.60;99.90;;;;;;5096581;28;20020;-74
2022/03/12 02:42:08;;;;;;;1.15;0.47;;;20.60;99.90;;;;;;5096678;28;20028;-75
2022/03/12 02:44:35;;;;;;;5.13;0.80;;;20.70;99.90;;;;;;5096452;28;20024;-74
2022/03/12 02:47:17;;;;;;;10.38;0.90;;;20.70;99.90;;;;;;5096751;28;20435;-74
2022/03/12 02:49:59;;;;;;;1.98;0.75;;;20.80;99.90;;;;;;5096237;28;20048;-73
2022/03/12 02:52:28;;;;;;;5.45;0.85;;;21.00;99.90;;;;;;5096511;28;20064;-75
2022/03/12 02:54:58;;;;;;;3.80;0.90;;;21.10;99.90;;;;;;5096521;28;20070;-75
2022/03/12 02:57:28;;;;;;;3.42;0.75;;;21.20;99.90;;;;;;5096278;28;20052;-73
2022/03/12 03:00:00;;;;;;;3.58;0.77;;;21.30;99.90;;;;;;5096077;28;20028;-75
2022/03/12 03:02:53;;;;;;;1.90;0.85;;;21.40;99.90;;;;;;5096310;28;20028;-75
2022/03/12 03:08:08;;;;;;;3.30;0.60;;;21.70;99.90;;;;;;5096154;28;20481;-75
2022/03/12 03:10:41;;;;;;;3.47;0.70;;;21.80;99.90;;;;;;5096155;28;20039;-74
2022/03/12 03:13:37;;;;;;;2.45;0.73;;;21.80;99.90;;;;;;5095958;28;20032;-75
2022/03/12 03:16:24;;;;;;;1.92;0.60;;;21.70;99.90;;;;;;5089535;28;20377;-74
2022/03/12 03:18:53;;;;;;;1.52;0.32;;;21.60;99.90;;;;;;5096069;28;20539;-75
2022/03/12 03:21:26;;;;;;;5.20;1.00;;;21.50;99.90;;;;;;5096157;28;20095;-73
2022/03/12 03:23:54;;;;;;;2.80;0.65;;;21.50;99.90;;;;;;5096036;28;20024;-72
2022/03/12 03:26:34;;;;;;;2.45;0.60;;;21.60;99.90;;;;;;5095594;28;20381;-75
2022/03/12 03:29:01;;;;;;;2.22;0.73;;;21.60;99.90;;;;;;5096133;28;20354;-74
2022/03/12 03:31:29;;;;;;;3.83;0.38;;;21.60;99.90;;;;;;5095796;28;20023;-74
2022/03/12 03:33:56;;;;;;;3.40;0.93;;;21.60;99.90;;;;;;5095775;28;20047;-73
2022/03/12 03:36:24;;;;;;;2.97;0.60;;;21.60;99.90;;;;;;5095703;28;20016;-75
2022/03/12 03:38:51;;;;;;;4.78;0.95;;;21.70;99.90;;;;;;5095422;28;20051;-73
2022/03/12 03:41:19;;;;;;;2.60;0.60;;;21.80;99.90;;;;;;5095485;28;20169;-75
2022/03/12 03:43:48;;;;;;;1.92;0.68;;;21.90;99.90;;;;;;5095569;28;20032;-73
2022/03/12 03:46:22;;;;;;;4.25;0.95;;;22.10;99.90;;;;;;5095510;28;20020;-75
2022/03/12 03:48:51;;;;;;;2.90;1.02;;;22.20;99.90;;;;;;5095271;28;20096;-74
2022/03/12 03:51:20;;;;;;;3.10;0.60;;;22.30;99.90;;;;;;5095257;28;20028;-73
2022/03/12 03:53:48;;;;;;;4.40;0.85;;;22.50;99.90;;;;;;5095159;28;20032;-74
2022/03/12 03:56:16;;;;;;;3.70;0.50;;;22.50;99.90;;;;;;5095252;28;20099;-72
2022/03/12 03:58:44;;;;;;;2.45;0.68;;;22.50;99.90;;;;;;5094915;28;20020;-73
2022/03/12 04:01:15;;;;;;;2.55;0.90;;;22.50;99.90;;;;;;5095285;28;20020;-75
2022/03/12 04:03:51;;;;;;;3.35;1.05;;;22.50;99.90;;;;;;5095012;28;20107;-75
2022/03/12 04:06:21;;;;;;;1.50;0.50;;;22.50;99.90;;;;;;5094968;28;20024;-74
2022/03/12 04:08:49;;;;;;;2.47;0.70;;;22.50;99.90;;;;;;5094805;28;20032;-75
2022/03/12 04:11:20;;;;;;;1.48;0.43;;;22.50;99.90;;;;;;5094814;28;20073;-74
2022/03/12 04:13:49;;;;;;;2.90;0.50;;;22.60;99.90;;;;;;5095059;28;20032;-74
2022/03/12 04:16:18;;;;;;;2.53;0.63;;;22.70;99.90;;;;;;5094883;28;20377;-73
2022/03/12 04:18:46;;;;;;;7.32;0.55;;;22.70;99.90;;;;;;5094668;28;20350;-73
2022/03/12 04:21:16;;;;;;;4.28;0.63;;;22.80;99.90;;;;;;5094716;28;20020;-73
2022/03/12 04:23:45;;;;;;;4.65;1.00;;;22.90;99.90;;;;;;5094707;28;20357;-75
2022/03/12 04:26:13;;;;;;;4.35;0.80;;;23.00;99.90;;;;;;5094702;28;20043;-75
2022/03/12 04:28:41;;;;;;;1.85;0.52;;;23.10;99.90;;;;;;5094755;28;20469;-73
2022/03/12 04:31:09;;;;;;;3.35;0.60;;;23.20;99.90;;;;;;5094694;28;20020;-75
2022/03/12 04:33:38;;;;;;;3.38;1.02;;;23.20;99.90;;;;;;5094340;28;20032;-73
2022/03/12 04:36:09;;;;;;;3.13;0.60;;;23.30;99.90;;;;;;5094400;28;20036;-73
2022/03/12 04:38:37;;;;;;;3.78;0.75;;;23.30;99.90;;;;;;5094320;28;20039;-75
2022/03/12 04:41:06;;;;;;;2.30;0.50;;;23.30;99.90;;;;;;5094628;28;20070;-74
2022/03/12 04:43:34;;;;;;;3.67;0.45;;;23.40;99.90;;;;;;5094532;28;20112;-79
2022/03/12 04:46:02;;;;;;;1.95;0.70;;;23.40;99.90;;;;;;5093878;28;20110;-76
2022/03/12 04:48:30;;;;;;;2.70;0.60;;;23.50;99.90;;;;;;5093765;28;20115;-75
2022/03/12 04:50:58;;;;;;;2.38;0.65;;;23.50;99.90;;;;;;5093601;28;20107;-75
2022/03/12 04:53:26;;;;;;;4.22;0.75;;;23.60;99.90;;;;;;5092213;28;20439;-76
2022/03/12 04:55:54;;;;;;;3.65;0.65;;;23.60;99.90;;;;;;5093097;28;20450;-76
2022/03/12 04:58:22;;;;;;;4.47;0.45;;;23.60;99.90;;;;;;5093437;28;20027;-74
2022/03/12 05:00:49;;;;;;;1.92;0.70;;;23.60;99.90;;;;;;5092985;28;20044;-74
2022/03/12 05:03:20;;;;;;;3.35;0.68;;;23.60;99.90;;;;;;5090684;28;20111;-75
2022/03/12 05:05:50;;;;;;;2.00;0.82;;;23.60;99.90;;;;;;5090496;28;20018;-73
2022/03/12 05:08:20;;;;;;;3.13;0.73;;;23.60;99.90;;;;;;5093136;28;20016;-74
2022/03/12 05:10:49;;;;;;;4.57;1.17;;;23.70;99.90;;;;;;5091041;28;20012;-75
2022/03/12 05:13:22;;;;;;;4.00;0.90;;;23.60;99.90;;;;;;5093165;28;20032;-75
2022/03/12 05:15:52;;;;;;;1.98;0.60;;;23.60;99.90;;;;;;5090782;28;20431;-75
2022/03/12 05:18:23;;;;;;;0.95;0.45;;;23.50;99.90;;;;;;5093042;28;20020;-76
2022/03/12 05:20:52;;;;;;;3.78;0.43;;;23.30;99.90;;;;;;5091320;28;20092;-75
2022/03/12 05:23:20;;;;;;;2.47;0.50;;;23.30;99.90;;;;;;5093126;28;20012;-74
2022/03/12 05:25:49;;;;;;;2.63;0.68;;;23.20;99.90;;;;;;5090173;28;20024;-73
2022/03/12 05:28:23;;;;;;;2.55;0.45;;;23.20;99.90;;;;;;5093145;28;20095;-75
2022/03/12 05:30:54;;;;;;;4.07;0.70;;;23.20;99.90;;;;;;5091015;28;20024;-74
2022/03/12 05:33:22;;;;;;;1.00;0.35;;;23.10;99.90;;;;;;5092838;28;20024;-75
2022/03/12 05:35:51;;;;;;;1.77;0.38;;;23.00;99.90;;;;;;5092825;28;20020;-73
2022/03/12 05:38:18;;;;;;;1.83;0.30;;;22.90;99.90;;;;;;5093393;28;20024;-76
2022/03/12 05:40:48;;;;;;;2.00;0.35;;;22.80;99.90;;;;;;5093638;28;20539;-77
2022/03/12 05:43:17;;;;;;;3.13;0.40;;;22.70;99.90;;;;;;5093227;28;20031;-79
2022/03/12 05:45:52;;;;;;;2.85;0.52;;;22.60;99.90;;;;;;5093299;28;20099;-77
2022/03/12 05:48:20;;;;;;;3.35;0.52;;;22.60;99.90;;;;;;5093779;28;20024;-77
2022/03/12 05:50:49;;;;;;;3.17;1.10;;;22.50;99.90;;;;;;5093321;28;20074;-77
2022/03/12 05:53:19;;;;;;;2.10;0.70;;;22.40;99.90;;;;;;5093393;28;20040;-77
2022/03/12 05:55:47;;;;;;;1.85;0.20;;;22.40;99.90;;;;;;5093361;28;20024;-76
2022/03/12 05:58:17;;;;;;;3.75;0.73;;;22.40;99.90;;;;;;5093386;28;20020;-76
2022/03/12 06:00:46;;;;;;;2.58;0.40;;;22.40;99.90;;;;;;5093685;28;20365;-75
2022/03/12 06:03:13;;;;;;;5.05;0.57;;;22.40;99.90;;;;;;5093624;28;20028;-75
2022/03/12 06:05:42;;;;;;;3.15;0.50;;;22.40;99.90;;;;;;5093392;28;20023;-78
2022/03/12 06:08:21;;;;;;;1.48;0.50;;;22.30;99.90;;;;;;5095323;28;20032;-78
2022/03/12 06:10:54;;;;;;;1.15;0.60;;;22.30;99.90;;;;;;5097392;28;20024;-76
2022/03/12 06:13:28;;;;;;;1.17;0.70;;;22.20;99.90;;;;;;5097060;28;20451;-77
2022/03/12 06:16:00;;;;;;;1.45;0.50;;;22.30;99.90;;;;;;5097317;28;20023;-78
2022/03/12 06:18:33;;;;;;;2.35;0.40;;;22.20;99.90;;;;;;5097251;28;20040;-76
2022/03/12 06:21:01;;;;;;;5.25;0.70;;;22.10;99.90;;;;;;5097266;28;20028;-76
2022/03/12 06:23:29;;;;;;;3.45;0.90;;;22.00;99.90;;;;;;5097203;28;20108;-76
2022/03/12 06:25:56;;;;;;;1.13;0.57;;;22.00;99.90;;;;;;5096869;28;20039;-76
2022/03/12 06:28:24;;;;;;;1.92;0.60;;;22.00;99.90;;;;;;5096663;28;20035;-77
2022/03/12 06:30:55;;;;;;;3.33;0.68;;;22.00;99.90;;;;;;5097557;28;20021;-78
2022/03/12 06:33:24;;;;;;;2.20;0.77;;;22.00;99.90;;;;;;5097016;28;20067;-79
2022/03/12 06:35:52;;;;;;;1.80;0.45;;;22.00;99.90;;;;;;5096658;28;20415;-78
2022/03/12 06:38:24;;;;;;;2.13;0.65;;;22.00;99.90;;;;;;5096587;28;20024;-76
2022/03/12 06:40:56;;;;;;;2.40;0.50;;;22.00;99.90;;;;;;5097040;28;20074;-77
2022/03/12 06:43:26;;;;;;;4.05;0.55;;;21.90;99.90;;;;;;5096808;28;20123;-78
2022/03/12 06:45:53;;;;;;;4.57;1.20;;;21.90;99.90;;;;;;5096734;28;20547;-78
2022/03/12 06:48:22;;;;;;;2.47;0.63;;;21.80;99.90;;;;;;5096500;28;20491;-76
2022/03/12 06:50:49;;;;;;;2.25;0.90;;;21.80;99.90;;;;;;5096364;28;20092;-75
2022/03/12 06:53:16;;;;;;;1.38;0.52;;;21.70;99.90;;;;;;5095085;28;20119;-75
2022/03/12 06:55:44;;;;;;;1.48;0.63;;;21.60;99.90;;;;;;5096395;28;20107;-73
2022/03/12 06:58:12;;;;;;;3.05;0.43;;;21.60;99.90;;;;;;5096215;28;20020;-73
2022/03/12 07:00:40;;;;;;;4.47;0.40;;;21.50;99.90;;;;;;5096526;28;20020;-75
2022/03/12 07:03:07;;;;;;;4.82;0.50;;;21.40;99.90;;;;;;5096437;28;20047;-76
2022/03/12 07:05:35;;;;;;;3.10;0.52;;;21.40;99.90;;;;;;5096184;28;20020;-76
2022/03/12 07:08:02;;;;;;;3.28;0.60;;;21.40;99.90;;;;;;5096181;28;20154;-74
2022/03/12 07:10:30;;;;;;;0.93;0.45;;;21.30;99.90;;;;;;5096275;28;20046;-79
2022/03/12 07:12:57;;;;;;;2.47;0.80;;;21.30;99.90;;;;;;5096168;28;20024;-79
2022/03/12 07:15:25;;;;;;;3.22;0.55;;;21.30;99.90;;;;;;5095915;28;20388;-73
2022/03/12 07:17:52;;;;;;;2.80;0.43;;;21.20;99.90;;;;;;5095697;28;20020;-73
2022/03/12 07:20:23;;;;;;;1.17;0.28;;;21.20;99.90;;;;;;5095977;28;20449;-78
2022/03/12 07:22:50;;;;;;;3.33;0.60;;;21.10;99.90;;;;;;5095862;28;20020;-73
2022/03/12 07:25:18;;;;;;;2.15;0.73;;;21.10;99.90;;;;;;5095710;28;20089;-74
2022/03/12 07:27:46;;;;;;;1.15;0.50;;;21.00;99.90;;;;;;5095742;28;20059;-77
2022/03/12 07:30:15;;;;;;;2.47;0.60;;;20.90;99.90;;;;;;5095651;28;20028;-78
2022/03/12 07:32:44;;;;;;;3.83;0.40;;;20.80;99.90;;;;;;5095559;28;20021;-77
2022/03/12 07:35:16;;;;;;;1.88;0.65;;;20.80;99.90;;;;;;5095711;28;20024;-76
2022/03/12 07:37:46;;;;;;;1.80;0.70;;;20.80;99.90;;;;;;5095572;28;20030;-78
2022/03/12 07:40:15;;;;;;;2.72;0.40;;;20.80;99.90;;;;;;5095905;28;20032;-76
2022/03/12 07:42:43;;;;;;;1.10;0.30;;;20.70;99.90;;;;;;5095801;28;20055;-77
2022/03/12 07:45:12;;;;;;;3.70;0.43;;;20.60;99.90;;;;;;5095391;28;20485;-77
2022/03/12 07:47:39;;;;;;;6.38;0.50;;;20.60;99.90;;;;;;5094949;28;20519;-76
2022/03/12 07:50:09;;;;;;;3.80;0.52;;;20.50;99.90;;;;;;5095201;28;20082;-77
2022/03/12 07:52:37;;;;;;;1.42;0.30;;;20.40;99.90;;;;;;5095283;28;20016;-80
2022/03/12 07:55:08;;;;;;;3.20;0.30;;;20.30;99.90;;;;;;5095264;28;20115;-78
2022/03/12 07:57:37;;;;;;;1.23;0.45;;;20.30;99.90;;;;;;5094074;28;20443;-78
2022/03/12 08:00:12;;;;;;;5.60;0.73;;;20.20;99.90;;;;;;5095430;28;20024;-78
2022/03/12 08:02:40;;;;;;;4.30;1.23;;;20.10;99.90;;;;;;5095205;28;20032;-78
2022/03/12 08:05:09;;;;;;;3.40;0.70;;;20.10;99.90;;;;;;5094973;28;20024;-78
2022/03/12 08:07:38;;;;;;;5.85;0.85;;;20.00;99.90;;;;;;5095074;28;20024;-79
2022/03/12 08:10:07;;;;;;;1.55;0.50;;;19.90;99.90;;;;;;5093619;28;20104;-76
2022/03/12 08:12:35;;;;;;;5.38;0.88;;;19.90;99.90;;;;;;5092449;28;20020;-76
2022/03/12 08:15:05;;;;;;;1.95;0.60;;;19.80;99.90;;;;;;5076104;28;20205;-76
2022/03/12 08:17:33;;;;;;;3.38;0.63;;;19.80;99.90;;;;;;5080843;28;20024;-76
2022/03/12 08:20:03;;;;;;;2.88;0.68;;;19.70;99.90;;;;;;5074605;28;20035;-76
2022/03/12 08:22:31;;;;;;;3.33;0.93;;;19.60;99.90;;;;;;5072110;28;20024;-77
2022/03/12 08:24:58;;;;;;;3.08;1.02;;;19.50;99.90;;;;;;5073903;28;20013;-77
2022/03/12 08:27:26;;;;;;;5.20;0.95;;;19.50;99.90;;;;;;5071291;28;20055;-77
2022/03/12 08:29:54;;;;;;;3.70;1.25;;;19.50;99.90;;;;;;5072225;28;20066;-78
2022/03/12 08:32:22;;;;;;;3.80;0.60;;;19.40;99.90;;;;;;5072024;28;20098;-76
2022/03/12 08:34:50;;;;;;;0.95;0.60;;;19.40;99.90;;;;;;5072336;28;20063;-75
2022/03/12 08:37:17;;;;;;;1.85;0.70;;;19.40;99.90;;;;;;5075418;28;20035;-76
2022/03/12 08:39:45;;;;;;;3.80;1.38;;;19.40;99.90;;;;;;5077437;28;20387;-77
2022/03/12 08:42:13;;;;;;;4.63;0.82;;;19.30;99.90;;;;;;5077563;28;20017;-78
2022/03/12 08:44:40;;;;;;;1.58;0.60;;;19.20;99.90;;;;;;5077955;28;20016;-78
2022/03/12 08:47:08;;;;;;;1.55;0.80;;;19.10;99.90;;;;;;5078564;28;20039;-77
2022/03/12 08:49:36;;;;;;;1.33;0.40;;;19.10;99.90;;;;;;5077183;28;20051;-77
2022/03/12 08:52:04;;;;;;;1.40;0.73;;;19.00;99.90;;;;;;5075171;28;20059;-76
2022/03/12 08:54:32;;;;;;;3.25;0.82;;;18.90;99.90;;;;;;5072496;28;20108;-76
2022/03/12 08:57:00;;;;;;;1.85;0.60;;;18.80;99.90;;;;;;5072550;28;20017;-77
2022/03/12 08:59:28;;;;;;;2.97;0.68;;;18.80;99.90;;;;;;5072018;28;20103;-77
2022/03/12 09:01:56;;;;;;;1.58;0.60;;;18.70;99.90;;;;;;5075089;28;20091;-77
2022/03/12 09:04:24;;;;;;;1.20;0.50;;;18.70;99.90;;;;;;5072185;28;20100;-76
2022/03/12 09:06:52;;;;;;;1.70;1.02;;;18.60;99.90;;;;;;5070583;28;20526;-78
2022/03/12 09:09:20;;;;;;;4.93;0.70;;;18.60;99.90;;;;;;5072195;28;20032;-77
2022/03/12 09:11:47;;;;;;;7.93;0.82;;;18.50;99.90;;;;;;5072137;28;20027;-78
2022/03/12 09:14:15;;;;;;;2.08;1.13;;;18.40;99.90;;;;;;5072065;28;20027;-77
2022/03/12 09:16:43;;;;;;;1.73;0.60;;;18.30;99.90;;;;;;5071763;28;20571;-77
2022/03/12 09:19:10;;;;;;;3.17;0.57;;;18.30;99.90;;;;;;5071969;28;20473;-77
2022/03/12 09:21:38;;;;;;;2.92;0.77;;;18.20;99.90;;;;;;5072116;28;20496;-76
2022/03/12 09:24:06;;;;;;;5.53;0.47;;;18.20;99.90;;;;;;5072651;28;20017;-77
2022/03/12 09:26:35;;;;;;;2.08;0.50;;;18.10;99.90;;;;;;5072714;28;20024;-76
2022/03/12 09:29:04;;;;;;;2.42;0.82;;;18.10;99.90;;;;;;5072518;28;20030;-76
2022/03/12 09:31:31;;;;;;;4.05;0.50;;;18.00;99.90;;;;;;5072656;28;20012;-77
2022/03/12 09:34:01;;;;;;;3.50;0.88;;;18.00;99.90;;;;;;5072429;28;20024;-75
2022/03/12 09:36:29;;;;;;;1.95;0.47;;;18.00;99.90;;;;;;5072385;28;20075;-76
2022/03/12 09:38:57;;;;;;;1.60;0.35;;;17.90;99.90;;;;;;5071181;28;20021;-78
2022/03/12 09:41:25;;;;;;;1.15;0.30;;;17.90;99.90;;;;;;5073667;28;20056;-77
2022/03/12 09:43:53;;;;;;;0.95;0.20;;;18.00;99.90;;;;;;5076351;28;20024;-77
2022/03/12 09:46:20;;;;;;;2.00;0.60;;;17.90;99.90;;;;;;5075944;28;20490;-76
2022/03/12 09:48:48;;;;;;;0.75;0.28;;;18.00;99.90;;;;;;5075770;28;20025;-77
2022/03/12 09:51:16;;;;;;;1.45;0.70;;;17.90;99.90;;;;;;5072320;28;20405;-77
2022/03/12 09:53:44;;;;;;;3.35;0.70;;;17.90;99.90;;;;;;5071489;28;20388;-78
2022/03/12 09:56:11;;;;;;;1.52;0.40;;;17.90;99.90;;;;;;5071616;28;20020;-76
2022/03/12 09:58:41;;;;;;;3.35;0.70;;;17.80;99.90;;;;;;5072882;28;20074;-76
2022/03/12 10:01:10;;;;;;;2.38;0.50;;;17.80;99.90;;;;;;5071638;28;20401;-77
2022/03/12 10:03:38;;;;;;;0.93;0.47;;;17.80;99.90;;;;;;5071676;28;20349;-76
2022/03/12 10:06:06;;;;;;;4.25;0.70;;;17.80;99.90;;;;;;5073548;28;20017;-77
2022/03/12 10:08:34;;;;;;;2.47;0.60;;;17.70;99.90;;;;;;5070306;28;20024;-77
2022/03/12 10:11:02;;;;;;;3.95;0.60;;;17.70;99.90;;;;;;5071548;28;20107;-76
2022/03/12 10:13:30;;;;;;;1.25;0.30;;;17.60;99.90;;;;;;5072760;28;20081;-77
2022/03/12 10:15:59;;;;;;;5.72;0.80;;;17.60;99.90;;;;;;5071384;28;20021;-76
2022/03/12 10:18:30;;;;;;;0.98;0.60;;;17.60;99.90;;;;;;5075595;28;20044;-77
2022/03/12 10:20:57;;;;;;;1.33;0.40;;;17.60;99.90;;;;;;5079829;28;20023;-77
2022/03/12 10:23:25;;;;;;;1.50;0.65;;;17.50;99.90;;;;;;5080844;28;20017;-77
2022/03/12 10:25:53;;;;;;;3.22;0.60;;;17.50;99.90;;;;;;5080358;28;20020;-77
2022/03/12 10:28:20;;;;;;;4.22;0.55;;;17.50;99.90;;;;;;5074225;28;20080;-77
2022/03/12 10:30:53;;;;;;;3.58;0.50;;;17.40;99.90;;;;;;5071403;28;20096;-77
2022/03/12 10:33:25;;;;;;;1.30;0.50;;;17.40;99.90;;;;;;5071219;28;20074;-77
2022/03/12 10:35:53;;;;;;;3.10;0.50;;;17.40;99.90;;;;;;5071452;28;20584;-77
2022/03/12 10:38:22;;;;;;;1.90;0.50;;;17.40;99.90;;;;;;5069980;28;20067;-77
2022/03/12 10:40:49;;;;;;;4.15;0.70;;;17.30;99.90;;;;;;5071352;28;20017;-77
2022/03/12 10:43:17;;;;;;;1.48;0.30;;;17.30;99.90;;;;;;5070775;28;20035;-77
2022/03/12 10:45:47;;;;;;;3.22;0.40;;;17.30;99.90;;;;;;5071743;28;20046;-77
2022/03/12 10:48:19;;;;;;;2.60;0.65;;;17.30;99.90;;;;;;5072305;28;20024;-77
2022/03/12 10:50:56;;;;;;;3.10;0.70;;;17.30;99.90;;;;;;5072701;28;20435;-77
2022/03/12 10:53:24;;;;;;;5.47;0.95;;;17.30;99.90;;;;;;5071695;28;20473;-77
2022/03/12 10:55:52;;;;;;;1.60;0.55;;;17.30;99.90;;;;;;5074612;28;20021;-78
2022/03/12 10:58:26;;;;;;;3.33;0.77;;;17.30;99.90;;;;;;5074443;28;20092;-78
2022/03/12 11:01:01;;;;;;;3.92;0.85;;;17.30;99.90;;;;;;5083342;28;20035;-77
2022/03/12 11:03:34;;;;;;;2.72;1.05;;;17.30;99.90;;;;;;5080852;28;20424;-77
2022/03/12 11:06:02;;;;;;;6.90;1.00;;;17.30;99.90;;;;;;5084682;28;20441;-76
2022/03/12 11:08:34;;;;;;;2.35;0.60;;;17.30;99.90;;;;;;5081597;28;20085;-76
2022/03/12 11:11:13;;;;;;;1.27;0.68;;;17.20;99.90;;;;;;5081059;28;20016;-75
2022/03/12 11:13:50;;;;;;;1.67;0.50;;;17.30;99.90;;;;;;5082355;28;20039;-76
2022/03/12 11:16:35;;;;;;;2.95;0.75;;;17.30;99.90;;;;;;5082411;28;20095;-76
2022/03/12 11:19:08;;;;;;;3.13;0.88;;;17.30;99.90;;;;;;5082268;28;20499;-76
2022/03/12 11:21:51;;;;;;;1.02;0.50;;;17.20;99.90;;;;;;5081960;28;20016;-76
2022/03/12 11:24:22;;;;;;;2.50;0.80;;;17.20;99.90;;;;;;5082466;28;20040;-75
2022/03/12 11:26:52;;;;;;;0.70;0.30;;;17.30;99.90;;;;;;5082743;28;20074;-76
2022/03/12 11:29:22;;;;;;;1.73;0.40;;;17.30;99.90;;;;;;5083231;28;20021;-76
2022/03/12 11:31:52;;;;;;;4.75;0.95;;;17.30;99.90;;;;;;5082689;28;20441;-76
2022/03/12 11:34:39;;;;;;;2.95;0.60;;;17.30;99.90;;;;;;5081110;28;20037;-76
2022/03/12 11:37:20;;;;;;;1.73;0.70;;;17.30;99.90;;;;;;5082657;28;20016;-76
2022/03/12 11:39:49;;;;;;;6.05;1.08;;;17.30;99.90;;;;;;5080997;28;20051;-76
2022/03/12 11:42:21;;;;;;;3.88;0.98;;;17.30;99.90;;;;;;5081676;28;20016;-75
2022/03/12 11:44:58;;;;;;;1.77;0.60;;;17.30;99.90;;;;;;5083197;28;20024;-76
2022/03/12 11:47:27;;;;;;;2.22;0.82;;;17.30;99.90;;;;;;5082435;28;20024;-75
2022/03/12 11:49:57;;;;;;;4.97;0.93;;;17.30;99.90;;;;;;5079409;28;20484;-74
2022/03/12 11:52:25;;;;;;;3.50;0.90;;;17.20;99.90;;;;;;5075853;28;20064;-76
2022/03/12 11:54:54;;;;;;;2.30;0.93;;;17.20;99.90;;;;;;5079401;28;20032;-76
2022/03/12 11:57:30;;;;;;;4.95;1.05;;;17.20;99.90;;;;;;5092007;28;20081;-74
2022/03/12 11:59:58;;;;;;;1.35;0.60;;;17.10;99.90;;;;;;5093499;28;20020;-76
2022/03/12 12:02:34;;;;;;;3.28;0.70;;;17.10;99.90;;;;;;5090930;28;20426;-76
2022/03/12 12:05:16;;;;;;;3.78;0.68;;;17.00;99.90;;;;;;5092321;28;20358;-76
2022/03/12 12:07:44;;;;;;;1.20;0.50;;;16.90;99.90;;;;;;5094143;28;20389;-74
2022/03/12 12:10:15;;;;;;;2.35;0.60;;;16.90;99.90;;;;;;5093994;28;20083;-75
2022/03/12 12:12:47;;;;;;;5.40;0.80;;;16.90;99.90;;;;;;5092590;28;20469;-74
2022/03/12 12:15:19;;;;;;;3.80;1.23;;;16.80;99.90;;;;;;5092945;28;20031;-76
2022/03/12 12:17:48;;;;;;;5.35;0.95;;;16.80;99.90;;;;;;5091489;28;20417;-76
2022/03/12 12:20:18;;;;;;;4.15;0.80;;;16.70;99.90;;;;;;5086430;28;20028;-75
2022/03/12 12:22:45;;;;;;;6.47;0.70;;;16.70;99.90;;;;;;5088425;28;20020;-76
2022/03/12 12:25:15;;;;;;;3.88;0.50;;;16.70;99.90;;;;;;5093546;28;20058;-77
2022/03/12 12:27:51;;;;;;;4.90;0.88;;;16.70;99.90;;;;;;5088034;28;20028;-75
2022/03/12 12:30:38;;;;;;;;;;;16.70;99.90;;;;;;5092604;28;20024;-78
2022/03/12 12:33:15;;;;;;;2.92;0.85;;;16.70;99.90;;;;;;5093423;28;19908;-76
2022/03/12 12:35:44;;;;;;;2.40;0.70;;;16.60;99.90;;;;;;5093436;28;20304;-76
2022/03/12 12:38:12;;;;;;;2.33;0.60;;;16.60;99.90;;;;;;5093267;28;20024;-76
2022/03/12 12:40:52;;;;;;;3.25;1.35;;;16.60;99.90;;;;;;5093317;28;20476;-78
2022/03/12 12:43:27;;;;;;;3.10;0.68;;;16.60;99.90;;;;;;5092883;28;20126;-76
2022/03/12 12:45:55;;;;;;;2.33;0.60;;;16.60;99.90;;;;;;5093116;28;20026;-77
2022/03/12 12:48:34;;;;;;;2.97;0.90;;;16.60;99.90;;;;;;5093253;28;20113;-77
2022/03/12 12:51:07;;;;;;;2.45;0.75;;;16.60;99.90;;;;;;5090704;28;20108;-76
2022/03/12 12:53:38;;;;;;;2.38;0.60;;;16.50;99.90;;;;;;5092677;28;20039;-74
2022/03/12 12:56:28;;;;;;;4.80;0.80;;;16.50;99.90;;;;;;5086751;28;20085;-75
2022/03/12 12:58:58;;;;;;;2.08;0.75;;;16.60;99.90;;;;;;5080043;28;20099;-75
2022/03/12 13:01:29;;;;;;;1.65;0.50;;;16.60;99.90;;;;;;5081282;28;20404;-75
2022/03/12 13:03:56;;;;;;;2.35;0.70;;;16.60;99.90;;;;;;5081411;28;20024;-75